GW1753 Weather Reports


Display with metric or nautical units.
time (UTC)temp
F
wind
direction
speed
MPH
gust
MPH
rain 1hr
in
rain 24hr
in
rain mn
in
humidity
%
barometer
mb
20221209221322 27 286 0.0 1.0 0.00 0.00 0.00 77 1011.0
20221209220822 27 296 1.0 1.0 0.00 0.00 0.00 77 1010.7
20221209220321 28 288 1.0 3.0 0.00 0.00 0.00 77 1010.8
20221209215820 28 293 3.0 5.0 0.00 0.00 0.00 76 1010.5
20221209215319 29 288 3.0 5.0 0.00 0.00 0.00 75 1010.5
20221209214818 29 266 4.0 6.0 0.00 0.00 0.00 74 1010.5
20221209214318 29 261 3.0 5.0 0.00 0.00 0.00 73 1010.5
20221209213816 30 340 3.0 3.0 0.00 0.00 0.00 72 1010.3
20221209213315 30 268 3.0 6.0 0.00 0.00 0.00 71 1010.2
20221209212815 30 252 4.0 6.0 0.00 0.00 0.00 70 1010.0
20221209212315 31 296 3.0 6.0 0.00 0.00 0.00 71 1010.1
20221209211815 31 285 4.0 7.0 0.00 0.00 0.00 71 1010.0
20221209211312 31 252 6.0 8.0 0.00 0.00 0.00 70 1010.2
20221209210813 30 272 4.0 7.0 0.00 0.00 0.00 71 1009.8
20221209210312 30 281 5.0 10.0 0.00 0.00 0.00 72 1009.9
20221209205810 30 232 6.0 9.0 0.00 0.00 0.00 72 1009.9
20221209205310 30 298 5.0 9.0 0.00 0.00 0.00 73 1009.9
20221209204809 30 270 7.0 10.0 0.00 0.00 0.00 73 1009.6
20221209204309 30 281 8.0 10.0 0.00 0.00 0.00 72 1009.4
20221209203809 31 285 10.0 13.0 0.00 0.00 0.00 71 1009.5
20221209203307 30 298 6.0 11.0 0.00 0.00 0.00 72 1009.8
20221209202805 30 276 7.0 11.0 0.00 0.00 0.00 73 1009.5
20221209202305 30 278 7.0 11.0 0.00 0.00 0.00 72 1009.4
20221209201802 30 237 8.0 10.0 0.00 0.00 0.00 73 1009.3
20221209201301 30 279 9.0 11.0 0.00 0.00 0.00 73 1009.4
20221209200800 29 274 7.0 11.0 0.00 0.00 0.00 73 1009.3
20221209200258 29 289 8.0 10.0 0.00 0.00 0.00 72 1009.2
20221209195757 29 266 5.0 10.0 0.00 0.00 0.00 73 1009.1
20221209195253 29 218 8.0 9.0 0.00 0.00 0.00 73 1009.4
20221209194752 29 270 8.0 11.0 0.00 0.00 0.00 73 1009.2
20221209194252 29 244 8.0 11.0 0.00 0.00 0.00 73 1009.1
20221209193752 28 261 5.0 8.0 0.00 0.00 0.00 73 1008.9
20221209193250 28 273 6.0 10.0 0.00 0.00 0.00 74 1009.1
20221209192748 29 282 8.0 10.0 0.00 0.00 0.00 74 1009.1
20221209192246 29 280 6.0 11.0 0.00 0.00 0.00 73 1009.1
20221209191745 29 258 7.0 11.0 0.00 0.00 0.00 72 1008.9
20221209191241 30 279 9.0 10.0 0.00 0.00 0.00 71 1008.8
20221209190738 31 297 7.0 14.0 0.00 0.00 0.00 68 1009.0
20221209190236 31 251 9.0 13.0 0.00 0.00 0.00 68 1008.9
20221209185736 32 278 8.0 11.0 0.00 0.00 0.00 67 1009.0
20221209185233 32 240 9.0 16.0 0.00 0.00 0.00 66 1008.9
20221209184732 30 272 6.0 9.0 0.00 0.00 0.00 69 1009.1
20221209184231 29 293 7.0 10.0 0.00 0.00 0.00 71 1009.0
20221209183731 30 286 4.0 7.0 0.00 0.00 0.00 71 1009.0
20221209183229 30 316 4.0 6.0 0.00 0.00 0.00 70 1009.1
20221209182729 30 295 2.0 5.0 0.00 0.00 0.00 70 1009.3
20221209182228 32 311 2.0 7.0 0.00 0.00 0.00 68 1009.2
20221209181727 31 252 5.0 10.0 0.00 0.00 0.00 67 1009.2
20221209181226 31 280 3.0 9.0 0.00 0.00 0.00 67 1009.1
20221209180725 32 261 5.0 8.0 0.00 0.00 0.00 66 1009.1
20221209180223 32 250 4.0 8.0 0.00 0.00 0.00 66 1009.1
20221209175722 31 272 5.0 9.0 0.00 0.00 0.00 65 1009.0
20221209175220 32 277 6.0 10.0 0.00 0.00 0.00 65 1009.1
20221209174718 31 265 6.0 10.0 0.00 0.00 0.00 64 1008.9
20221209174218 31 249 8.0 10.0 0.00 0.00 0.00 66 1009.1
20221209173716 32 307 6.0 9.0 0.00 0.00 0.00 64 1009.1
20221209173214 32 259 5.0 9.0 0.00 0.00 0.00 64 1009.0
20221209172713 32 310 5.0 7.0 0.00 0.00 0.00 64 1009.0
20221209172213 32 287 3.0 7.0 0.00 0.00 0.00 64 1008.8
20221209171713 32 279 7.0 8.0 0.00 0.00 0.00 63 1008.9
20221209171211 31 262 8.0 11.0 0.00 0.00 0.00 64 1008.8
20221209170711 31 260 4.0 8.0 0.00 0.00 0.00 64 1008.9
20221209170210 32 282 6.0 11.0 0.00 0.00 0.00 64 1008.8
20221209165709 31 286 6.0 11.0 0.00 0.00 0.00 63 1008.7
20221209165209 31 256 7.0 10.0 0.00 0.00 0.00 64 1008.7
20221209164709 31 289 7.0 9.0 0.00 0.00 0.00 62 1008.8
20221209164208 31 314 7.0 14.0 0.00 0.00 0.00 61 1008.8
20221209163706 31 280 7.0 10.0 0.00 0.00 0.00 62 1008.7
20221209163205 31 257 9.0 11.0 0.00 0.00 0.00 61 1008.8
20221209162705 31 254 8.0 10.0 0.00 0.00 0.00 60 1008.7
20221209162204 31 258 6.0 14.0 0.00 0.00 0.00 59 1008.7
20221209161703 31 283 6.0 9.0 0.00 0.00 0.00 60 1008.8
20221209161202 31 241 15.0 17.0 0.00 0.00 0.00 58 1008.6
20221209160702 31 237 13.0 18.0 0.00 0.00 0.00 58 1008.7
20221209160200 30 232 12.0 15.0 0.00 0.00 0.00 60 1008.8
20221209155659 30 252 10.0 17.0 0.00 0.00 0.00 59 1008.9
20221209155159 29 263 7.0 10.0 0.00 0.00 0.00 62 1008.7
20221209154658 29 300 5.0 8.0 0.00 0.00 0.00 62 1008.8
20221209154158 29 285 3.0 6.0 0.00 0.00 0.00 62 1008.8
20221209153656 30 291 5.0 7.0 0.00 0.00 0.00 62 1008.4
20221209153155 30 251 6.0 10.0 0.00 0.00 0.00 60 1008.4
20221209152654 29 247 3.0 7.0 0.00 0.00 0.00 60 1008.4
20221209152154 29 258 3.0 7.0 0.00 0.00 0.00 61 1008.6
20221209151653 29 242 6.0 9.0 0.00 0.00 0.00 61 1008.6
20221209151152 29 251 4.0 9.0 0.00 0.00 0.00 62 1008.6
20221209150651 29 244 5.0 8.0 0.00 0.00 0.00 61 1008.3
20221209150150 29 265 8.0 13.0 0.00 0.00 0.00 61 1008.6
20221209145649 28 246 3.0 9.0 0.00 0.00 0.00 63 1008.3
20221209145149 28 259 7.0 9.0 0.00 0.00 0.00 65 1008.3
20221209144648 28 256 7.0 13.0 0.00 0.00 0.00 64 1008.3
20221209144149 28 241 11.0 14.0 0.00 0.00 0.00 64 1008.2
20221209143647 28 239 7.0 13.0 0.00 0.00 0.00 65 1008.4
20221209143146 29 246 7.0 20.0 0.00 0.00 0.00 63 1008.6
20221209142645 29 239 7.0 14.0 0.00 0.00 0.00 65 1008.7
20221209142144 29 254 13.0 17.0 0.00 0.00 0.00 63 1008.7
20221209141643 29 242 9.0 13.0 0.00 0.00 0.00 63 1008.7
20221209141142 29 287 5.0 11.0 0.00 0.00 0.00 63 1008.8
20221209140642 29 265 6.0 10.0 0.00 0.00 0.00 64 1008.9
20221209140141 28 241 8.0 10.0 0.00 0.00 0.00 64 1008.8
20221209135641 29 277 1.0 8.0 0.00 0.00 0.00 64 1008.8
20221209135139 29 238 6.0 9.0 0.00 0.00 0.00 63 1008.8
20221209134638 28 245 5.0 11.0 0.00 0.00 0.00 64 1008.8
20221209134136 29 264 4.0 7.0 0.00 0.00 0.00 65 1008.9
20221209133636 29 274 4.0 8.0 0.00 0.00 0.00 64 1008.8
20221209133135 30 286 5.0 9.0 0.00 0.00 0.00 62 1009.0
20221209132634 29 271 5.0 7.0 0.00 0.00 0.00 63 1009.0
20221209132133 30 321 4.0 6.0 0.00 0.00 0.00 62 1009.0
20221209131632 30 279 3.0 6.0 0.00 0.00 0.00 62 1009.1
20221209131132 30 251 5.0 6.0 0.00 0.00 0.00 61 1008.9
20221209130631 30 269 5.0 8.0 0.00 0.00 0.00 60 1008.9
20221209130130 30 263 7.0 10.0 0.00 0.00 0.00 58 1008.8
20221209125630 29 240 4.0 8.0 0.00 0.00 0.00 60 1009.2
20221209125129 29 262 2.0 3.0 0.00 0.00 0.00 62 1009.2
20221209124627 29 244 5.0 7.0 0.00 0.00 0.00 61 1009.1
20221209124125 29 236 9.0 11.0 0.00 0.00 0.00 61 1009.0
20221209123624 29 234 9.0 13.0 0.00 0.00 0.00 61 1009.0
20221209123122 29 261 5.0 10.0 0.00 0.00 0.00 60 1009.0
20221209122620 29 241 6.0 10.0 0.00 0.00 0.00 60 1009.1
20221209122120 29 263 6.0 13.0 0.00 0.00 0.00 58 1009.2
20221209121617 29 255 6.0 8.0 0.00 0.00 0.00 59 1009.2
20221209121117 29 263 7.0 10.0 0.00 0.00 0.00 58 1009.6
20221209120616 30 278 4.0 10.0 0.00 0.00 0.00 57 1009.5
20221209120115 29 263 6.0 10.0 0.00 0.00 0.00 58 1009.5
20221209115615 28 288 6.0 7.0 0.00 0.00 0.00 60 1009.9
20221209115114 26 306 2.0 6.0 0.00 0.00 0.00 62 1009.8
20221209114613 27 293 1.0 2.0 0.00 0.00 0.00 62 1009.6
20221209114112 27 295 3.0 3.0 0.00 0.00 0.00 61 1009.6
20221209113612 27 346 2.0 5.0 0.00 0.00 0.00 62 1009.3
20221209113112 27 276 5.0 6.0 0.00 0.00 0.00 62 1009.5
20221209112610 27 340 3.0 5.0 0.00 0.00 0.00 63 1009.5
20221209112109 27 253 2.0 3.0 0.00 0.00 0.00 63 1009.5
20221209111608 27 311 2.0 2.0 0.00 0.00 0.00 62 1009.4
20221209111106 28 291 1.0 2.0 0.00 0.00 0.00 61 1009.8
20221209110606 29 262 2.0 5.0 0.00 0.00 0.00 59 1009.5
20221209110105 30 310 1.0 8.0 0.00 0.00 0.00 56 1009.6
20221209105605 28 256 1.0 8.0 0.00 0.00 0.00 58 1009.6
20221209105105 27 337 3.0 5.0 0.00 0.00 0.00 61 1009.6
20221209104604 27 269 1.0 1.0 0.00 0.00 0.00 61 1010.0
20221209104104 27 265 0.0 1.0 0.00 0.00 0.00 61 1010.0
20221209103602 27 329 1.0 2.0 0.00 0.00 0.00 63 1009.9
20221209103101 28 298 2.0 5.0 0.00 0.00 0.00 61 1010.1
20221209102600 28 334 1.0 3.0 0.00 0.00 0.00 61 1010.1
20221209102100 28 271 1.0 5.0 0.00 0.00 0.00 62 1010.2
20221209101558 29 252 3.0 8.0 0.00 0.00 0.00 60 1010.1
20221209101058 29 250 3.0 10.0 0.00 0.00 0.00 58 1010.3
20221209100556 29 229 6.0 9.0 0.00 0.00 0.00 58 1010.1
20221209100056 27 199 2.0 3.0 0.00 0.00 0.00 59 1009.9
20221209095555 27 286 0.0 1.0 0.00 0.00 0.00 61 1009.9
20221209095054 27 21 0.0 0.0 0.00 0.00 0.00 61 1010.1
20221209094553 27 79 1.0 1.0 0.00 0.00 0.00 60 1010.0
20221209094051 27 252 0.0 1.0 0.00 0.00 0.00 61 1010.1
20221209093551 26 63 1.0 3.0 0.00 0.00 0.00 64 1010.3
20221209093051 26 16 1.0 1.0 0.00 0.00 0.00 64 1010.3
20221209092549 27 262 0.0 1.0 0.00 0.00 0.00 63 1010.3
20221209092047 28 263 0.0 3.0 0.00 0.00 0.00 62 1010.3
20221209091546 28 225 5.0 7.0 0.00 0.00 0.00 61 1010.4
20221209091045 28 248 3.0 5.0 0.00 0.00 0.00 62 1010.4
20221209090542 28 254 6.0 8.0 0.00 0.00 0.00 61 1010.5
20221209090042 28 259 3.0 14.0 0.00 0.00 0.00 61 1010.2
20221209085540 29 325 5.0 8.0 0.00 0.00 0.00 60 1010.4
20221209085040 29 258 7.0 13.0 0.00 0.00 0.00 59 1010.4
20221209084539 28 223 12.0 13.0 0.00 0.00 0.00 59 1010.2
20221209084035 29 242 7.0 13.0 0.00 0.00 0.00 60 1010.3
20221209083533 30 219 12.0 13.0 0.00 0.00 0.00 58 1010.4
20221209083031 30 208 11.0 17.0 0.00 0.00 0.00 57 1010.2
20221209082530 31 229 10.0 14.0 0.00 0.00 0.00 56 1010.3
20221209082029 31 226 9.0 16.0 0.00 0.00 0.00 56 1010.4
20221209081525 30 227 10.0 15.0 0.00 0.00 0.00 56 1010.6
20221209081025 30 243 10.0 16.0 0.00 0.00 0.00 57 1011.0
20221209080525 30 268 11.0 15.0 0.00 0.00 0.00 57 1011.0
20221209080025 30 214 13.0 15.0 0.00 0.00 0.00 59 1010.7
20221209075523 31 212 21.0 23.0 0.00 0.00 0.00 56 1011.0
20221209075021 31 234 19.0 24.0 0.00 0.00 0.00 57 1011.0
20221209074521 32 227 20.0 23.0 0.00 0.00 0.00 56 1011.0
20221209074021 32 224 18.0 24.0 0.00 0.00 0.00 55 1011.0
20221209073520 31 215 14.0 25.0 0.00 0.00 0.00 55 1011.1
20221209073019 31 219 18.0 22.0 0.00 0.00 0.00 55 1011.1
20221209072519 31 227 19.0 22.0 0.00 0.00 0.00 57 1011.3
20221209072017 31 224 15.0 22.0 0.00 0.00 0.00 55 1011.2
20221209071516 31 241 10.0 18.0 0.00 0.00 0.00 55 1011.3
20221209071014 31 234 11.0 18.0 0.00 0.00 0.00 55 1011.4
20221209070512 30 228 9.0 16.0 0.00 0.00 0.00 55 1011.6
20221209070011 30 233 6.0 10.0 0.00 0.00 0.00 58 1011.6
20221209065510 29 230 12.0 15.0 0.00 0.00 0.00 58 1011.5
20221209065008 28 243 3.0 6.0 0.00 0.00 0.00 64 1011.8
20221209064506 28 316 3.0 7.0 0.00 0.00 0.00 63 1011.7
20221209064006 27 256 5.0 6.0 0.00 0.00 0.00 64 1011.9
20221209063504 27 262 3.0 6.0 0.00 0.00 0.00 65 1012.2
20221209063004 28 253 1.0 6.0 0.00 0.00 0.00 63 1011.9
20221209062503 28 243 7.0 10.0 0.00 0.00 0.00 61 1012.0
20221209062001 28 255 3.0 6.0 0.00 0.00 0.00 60 1012.2
20221209061459 29 234 3.0 6.0 0.00 0.00 0.00 61 1012.0
20221209060957 30 248 10.0 15.0 0.00 0.00 0.00 58 1012.2
20221209060455 30 212 14.0 21.0 0.00 0.00 0.00 57 1011.9
20221209055953 28 226 11.0 14.0 0.00 0.00 0.00 60 1012.0
20221209055452 28 257 6.0 11.0 0.00 0.00 0.00 61 1012.2
20221209054950 27 267 3.0 11.0 0.00 0.00 0.00 62 1012.3
20221209054448 26 264 3.0 5.0 0.00 0.00 0.00 63 1012.0
20221209053945 26 248 1.0 3.0 0.00 0.00 0.00 63 1012.3
20221209053443 27 242 4.0 7.0 0.00 0.00 0.00 62 1012.3
20221209052943 26 260 9.0 11.0 0.00 0.00 0.00 62 1012.2
20221209052442 26 252 4.0 8.0 0.00 0.00 0.00 63 1012.4
20221209051940 26 291 1.0 5.0 0.00 0.00 0.00 63 1012.6
20221209051439 26 242 5.0 10.0 0.00 0.00 0.00 64 1012.7
20221209050938 25 238 3.0 5.0 0.00 0.00 0.00 64 1012.7
20221209050438 26 247 4.0 5.0 0.00 0.00 0.00 64 1012.7
20221209045937 25 239 3.0 8.0 0.00 0.00 0.00 61 1012.7
20221209045436 26 226 1.0 5.0 0.00 0.00 0.00 63 1012.9
20221209044936 26 227 4.0 6.0 0.00 0.00 0.00 63 1013.1
20221209044435 27 235 7.0 9.0 0.00 0.00 0.00 60 1013.0
20221209043934 26 230 3.0 7.0 0.00 0.00 0.00 62 1013.1
20221209043432 26 236 7.0 9.0 0.00 0.00 0.00 63 1013.3
20221209042930 26 229 3.0 6.0 0.00 0.00 0.00 63 1013.3
20221209042429 26 221 7.0 9.0 0.00 0.00 0.00 62 1013.3
20221209041928 26 234 7.0 10.0 0.00 0.00 0.00 63 1013.4
20221209041425 25 226 7.0 10.0 0.00 0.00 0.00 64 1013.3
20221209040925 25 232 2.0 2.0 0.00 0.00 0.00 65 1013.7
20221209040423 25 223 1.0 3.0 0.00 0.00 0.00 65 1013.5
20221209035922 26 237 2.0 6.0 0.00 0.00 0.00 62 1013.6
20221209035421 26 246 1.0 3.0 0.00 0.00 0.00 64 1013.5
20221209034919 26 245 3.0 5.0 0.00 0.00 0.00 64 1013.5
20221209034417 26 253 4.0 9.0 0.00 0.00 0.00 64 1013.5
20221209033916 26 247 4.0 9.0 0.00 0.00 0.00 63 1013.6
20221209033414 26 215 5.0 7.0 0.00 0.00 0.00 64 1013.6
20221209032913 26 216 1.0 5.0 0.00 0.00 0.00 64 1013.7
20221209032412 27 196 5.0 6.0 0.00 0.00 0.00 63 1013.6
20221209031912 27 208 5.0 8.0 0.00 0.00 0.00 61 1013.7
20221209031411 26 222 3.0 5.0 0.00 0.00 0.00 63 1013.6
20221209030911 28 218 3.0 6.0 0.00 0.00 0.00 61 1013.8
20221209030408 28 218 4.0 8.0 0.00 0.00 0.00 60 1013.8
20221209025907 29 221 6.0 9.0 0.00 0.00 0.00 58 1013.9
20221209025406 29 238 10.0 11.0 0.00 0.00 0.00 59 1013.8
20221209024905 29 219 9.0 11.0 0.00 0.00 0.00 59 1013.8
20221209024405 29 232 13.0 16.0 0.00 0.00 0.00 58 1013.9
20221209023904 29 234 7.0 14.0 0.00 0.00 0.00 59 1014.0
20221209023403 30 230 8.0 15.0 0.00 0.00 0.00 59 1013.8
20221209022901 30 232 11.0 15.0 0.00 0.00 0.00 57 1013.9
20221209022400 29 249 9.0 10.0 0.00 0.00 0.00 59 1013.8
20221209021858 30 234 10.0 13.0 0.00 0.00 0.00 58 1014.0
20221209021358 30 246 11.0 18.0 0.00 0.00 0.00 58 1014.0
20221209020858 31 243 10.0 17.0 0.00 0.00 0.00 56 1014.0
20221209020357 31 246 12.0 24.0 0.00 0.00 0.00 57 1013.9
20221209015856 30 233 12.0 17.0 0.00 0.00 0.00 58 1013.9
20221209015356 30 248 10.0 17.0 0.00 0.00 0.00 59 1014.1
20221209014855 31 244 13.0 21.0 0.00 0.00 0.00 58 1014.0
20221209014354 32 228 15.0 17.0 0.00 0.00 0.00 58 1014.0
20221209013854 32 247 13.0 17.0 0.00 0.00 0.00 57 1014.0
20221209013353 32 244 20.0 23.0 0.00 0.00 0.00 55 1013.9
20221209012852 32 230 20.0 24.0 0.00 0.00 0.00 54 1013.8
20221209012352 32 235 16.0 25.0 0.00 0.00 0.00 54 1013.9
20221209011852 30 211 15.0 18.0 0.00 0.00 0.00 59 1013.8
20221209011350 31 241 17.0 18.0 0.00 0.00 0.00 58 1014.0
20221209010851 30 252 13.0 17.0 0.00 0.00 0.00 58 1013.9
20221209010350 30 247 9.0 14.0 0.00 0.00 0.00 60 1014.2
20221209005850 29 238 7.0 14.0 0.00 0.00 0.00 62 1014.3
20221209005348 30 241 7.0 10.0 0.00 0.00 0.00 61 1014.3
20221209004846 29 219 10.0 13.0 0.00 0.00 0.00 62 1014.3
20221209004344 30 247 7.0 9.0 0.00 0.00 0.00 60 1014.6
20221209003844 30 281 4.0 6.0 0.00 0.00 0.00 60 1014.8
20221209003342 30 247 2.0 6.0 0.00 0.00 0.00 61 1014.8
20221209002841 30 302 5.0 10.0 0.00 0.00 0.00 60 1014.8
20221209002339 30 254 4.0 10.0 0.00 0.00 0.00 61 1014.8
20221209001838 30 251 3.0 6.0 0.00 0.00 0.00 61 1014.6
20221209001338 30 256 5.0 7.0 0.00 0.00 0.00 60 1014.7
20221209000838 29 267 6.0 8.0 0.00 0.00 0.00 61 1014.8
20221209000337 29 269 1.0 3.0 0.00 0.00 0.00 64 1014.7
20221208235835 28 252 5.0 7.0 0.00 0.00 0.00 64 1014.8
20221208235332 30 246 6.0 8.0 0.00 0.00 0.00 61 1014.8
20221208234831 30 251 6.0 7.0 0.00 0.00 0.00 61 1014.9
20221208234331 30 245 8.0 9.0 0.00 0.00 0.00 61 1014.9
20221208233830 30 268 2.0 2.0 0.00 0.00 0.00 62 1015.1
20221208233328 30 256 2.0 6.0 0.00 0.00 0.00 61 1014.9
20221208232826 31 263 3.0 7.0 0.00 0.00 0.00 61 1014.9
20221208232326 30 254 5.0 7.0 0.00 0.00 0.00 62 1015.1
20221208231826 31 242 3.0 6.0 0.00 0.00 0.00 60 1015.1
20221208231325 31 253 4.0 6.0 0.00 0.00 0.00 61 1014.9
20221208230823 31 263 3.0 6.0 0.00 0.00 0.00 61 1015.0
20221208230321 31 315 3.0 6.0 0.00 0.00 0.00 61 1014.9
20221208225820 32 248 5.0 10.0 0.00 0.00 0.00 59 1014.9
20221208225318 32 257 11.0 14.0 0.00 0.00 0.00 58 1014.9
20221208224816 33 251 12.0 15.0 0.00 0.00 0.00 58 1014.7
20221208224314 32 248 7.0 13.0 0.00 0.00 0.00 59 1014.7
20221208223813 29 253 9.0 13.0 0.00 0.00 0.00 64 1014.9
20221208223313 30 250 3.0 3.0 0.00 0.00 0.00 64 1014.9
20221208222812 28 253 4.0 7.0 0.00 0.00 0.00 66 1014.9
20221208222310 27 232 4.0 5.0 0.00 0.00 0.00 68 1014.8
20221208221808 25 183 1.0 2.0 0.00 0.00 0.00 71 1014.8